• Join FlightAware (Why Join?)
  • Login
  • US Flag 
03:57AM EDT


 

Airport Tracker/Info


-or-


 

Live Flight TrackerFlight Track Log ✈ EJA982 ✈ 20-Jul-2013 ✈ KLAS - KLAX

Flight Track Log - Related Links

Times and Time Zones

All times are in EDT time to prevent confusion due to time zone crossing. See the EJA982 flight status page for this flight to view local times or setup timezone preferences in your user account.

Time Position Orientation Groundspeed Altitude Reporting Facility
EDT Latitude Longitude Course Direction KTS MPH feet Rate Location/Type
03:40AM 36.0536 -115.1836 221° Southwest 202 232 4,300  Level Los Angeles Center
03:41AM 35.9922 -115.2489 221° Southwest 256 295 7,300 2,760 Climbing Los Angeles Center
03:42AM 35.9319 -115.3067 218° Southwest 290 334 10,900 3,300 Climbing Los Angeles Center
03:43AM 35.8406 -115.2969 175° South 319 367 14,500 3,000 Climbing Los Angeles Center
03:44AM 35.7361 -115.2944 179° South 357 411 17,000 2,520 Climbing Los Angeles Center
03:45AM 35.6308 -115.3564 206° Southwest 421 484 19,700 2,460 Climbing Los Angeles Center
03:46AM 35.5519 -115.4642 228° Southwest 423 487 22,000 2,280 Climbing Los Angeles Center
03:47AM 35.4642 -115.5822 228° Southwest 414 476 24,300 2,100 Climbing Los Angeles Center
03:48AM 35.3908 -115.6817 228° Southwest 398 458 26,300 1,740 Climbing Los Angeles Center
03:49AM 35.3189 -115.7758 227° Southwest 384 442 27,900 840 Climbing Los Angeles Center
03:50AM 35.2444 -115.8778 228° Southwest 396 456 28,000  Climbing Los Angeles Center
03:51AM 35.1606 -115.9872 227° Southwest 432 497 28,000  Level Los Angeles Center
03:53AM 35.0733 -116.1003 227° Southwest 453 521 28,000  Level Los Angeles Center
03:54AM 34.9664 -116.2411 227° Southwest 468 539 28,000  Level Los Angeles Center
03:55AM 34.8775 -116.3589 227° Southwest 471 542 28,000  Level Los Angeles Center
03:56AM 34.7869 -116.4750 226° Southwest 472 543 28,000  Level Los Angeles Center
03:57AM 34.6931 -116.5906 225° Southwest 477 549 28,000  Level Los Angeles Center
03:58AM 34.5956 -116.7086 225° Southwest 490 564 28,000 -120 Level Los Angeles Center
03:59AM 34.4975 -116.8269 225° Southwest 494 568 27,800 -1,380 Descending Los Angeles Center
04:00AM 34.4022 -116.9442 225° Southwest 487 560 25,300 -2,520 Descending Los Angeles Center
04:01AM 34.3072 -117.0586 225° Southwest 482 555 22,800 -2,520 Descending Los Angeles Center
04:02AM 34.2158 -117.1697 225° Southwest 466 536 20,300 -1,920 Descending Los Angeles Center
04:03AM 34.1358 -117.2692 226° Southwest 435 501 19,000 -960 Descending Los Angeles Center
04:03AM 34.0833 -117.3333 225° Southwest 445 512 18,900 -2,520 Descending Southern California TRACON
04:04AM 34.0167 -117.5000 244° Southwest 446 513 14,900 -3,240 Descending Southern California TRACON
04:05AM 34.0167 -117.6167 270° West 484 557 12,100 -1,500 Descending Southern California TRACON
04:06AM 34.0000 -117.7500 261° West 385 443 12,000 -120 Descending Southern California TRACON
04:07AM 33.9833 -117.8667 260° West 396 456 11,900 -900 Descending Southern California TRACON
04:08AM 33.9833 -118.0000 270° West 357 411 10,300 -780 Descending Southern California TRACON
04:09AM 33.9667 -118.1167 260° West 377 434 10,300  Level Southern California TRACON
04:10AM 33.9833 -118.2500 279° West 377 434 10,300 -540 Level Southern California TRACON
04:11AM 34.0000 -118.3667 280° West 311 358 9,300 -1,260 Descending Southern California TRACON
04:12AM 34.0167 -118.4500 284° West 296 341 7,800 -1,560 Descending Southern California TRACON
04:14AM 34.0167 -118.5667 270° West 266 306 6,100 -1,560 Descending Southern California TRACON
04:15AM 34.0167 -118.6500 270° West 267 307 4,600 -1,500 Descending Southern California TRACON
04:16AM 33.9500 -118.6500 180° South 272 313 3,000 -1,260 Descending Southern California TRACON
04:17AM 33.9333 -118.5667 104° East 237 273 2,000 -900 Descending Southern California TRACON
04:18AM 33.9442 -118.4828 81° East 190 219 1,100 -720 Descending Los Angeles Center
04:19AM 33.9472 -118.4458 84° East 157 181 400 -720 Descending Los Angeles Center